createdAt,value
2022-12-10T00:01:18.936Z,99772.97
2022-12-10T00:03:46.715Z,99769.75
2022-12-10T00:06:16.751Z,99782.44
2022-12-10T00:08:44.047Z,99792.25
2022-12-10T00:11:12.891Z,99787.34
2022-12-10T00:13:40.808Z,99786.50
2022-12-10T00:16:10.626Z,99795.72
2022-12-10T00:18:38.505Z,99785.94
2022-12-10T00:21:11.428Z,99813.22
2022-12-10T00:23:39.153Z,99801.75
2022-12-10T00:26:08.714Z,99809.13
2022-12-10T00:28:36.448Z,99806.34
2022-12-10T00:31:08.731Z,99790.22
2022-12-10T00:33:36.302Z,99789.63
2022-12-10T00:36:09.835Z,99792.78
2022-12-10T00:38:38.259Z,99789.63
2022-12-10T00:41:05.881Z,99782.59
2022-12-10T00:43:34.813Z,99776.56
2022-12-10T00:46:02.843Z,99763.06
2022-12-10T00:48:29.966Z,99747.16
2022-12-10T00:51:02.301Z,99759.00
2022-12-10T00:53:31.247Z,99759.41
2022-12-10T00:55:59.000Z,99764.63
2022-12-10T00:58:29.751Z,99764.88
2022-12-10T01:01:11.469Z,99748.19
2022-12-10T01:03:39.357Z,99753.75
2022-12-10T01:06:14.445Z,99753.38
2022-12-10T01:08:43.172Z,99757.09
2022-12-10T01:11:11.488Z,99745.03
2022-12-10T01:13:39.625Z,99712.47
2022-12-10T01:16:09.199Z,99739.88
2022-12-10T01:18:36.792Z,99726.94
2022-12-10T01:21:13.080Z,99738.25
2022-12-10T01:23:43.013Z,99723.63
2022-12-10T01:26:13.703Z,99731.47
2022-12-10T01:28:43.980Z,99723.94
2022-12-10T01:31:36.432Z,99717.97
2022-12-10T01:34:07.537Z,99723.53
2022-12-10T01:36:40.443Z,99724.66
2022-12-10T01:39:09.999Z,99740.97
2022-12-10T01:41:45.945Z,99746.50
2022-12-10T01:44:12.857Z,99734.16
2022-12-10T01:46:44.968Z,99711.94
2022-12-10T01:49:18.475Z,99722.94
2022-12-10T01:51:50.239Z,99731.25
2022-12-10T01:54:25.975Z,99731.91
2022-12-10T01:57:00.083Z,99735.78
2022-12-10T01:59:28.968Z,99734.16
2022-12-10T02:02:23.948Z,99740.44
2022-12-10T02:05:09.058Z,99735.78
2022-12-10T02:07:45.132Z,99729.53
2022-12-10T02:10:58.672Z,99728.09
2022-12-10T02:13:40.413Z,99744.25
2022-12-10T02:16:31.158Z,99733.19
2022-12-10T02:19:29.456Z,99746.16
2022-12-10T02:21:59.908Z,99739.31
2022-12-10T02:24:34.218Z,99744.09
2022-12-10T02:27:19.325Z,99746.75
2022-12-10T02:29:49.110Z,99718.22
2022-12-10T02:32:22.303Z,99736.66
2022-12-10T02:34:53.982Z,99724.72
2022-12-10T02:37:34.431Z,99710.84
2022-12-10T02:40:07.659Z,99726.91
2022-12-10T02:42:44.043Z,99713.94
2022-12-10T02:45:12.415Z,99737.06
2022-12-10T02:47:41.963Z,99724.50
2022-12-10T02:50:13.924Z,99714.06
2022-12-10T02:52:40.965Z,99721.41
2022-12-10T02:55:12.972Z,99713.06
2022-12-10T02:58:08.069Z,99709.19
2022-12-10T03:00:44.887Z,99685.59
2022-12-10T03:03:15.080Z,99706.97
2022-12-10T03:05:53.365Z,99707.41
2022-12-10T03:08:28.100Z,99709.28
2022-12-10T03:11:04.116Z,99696.06
2022-12-10T03:13:39.624Z,99700.75
2022-12-10T03:16:08.006Z,99700.78
2022-12-10T03:18:38.445Z,99705.66
2022-12-10T03:21:08.223Z,99697.13
2022-12-10T03:23:38.670Z,99703.88
2022-12-10T03:26:06.772Z,99709.69
2022-12-10T03:28:39.586Z,99698.97
2022-12-10T03:31:08.994Z,99701.66
2022-12-10T03:33:36.277Z,99701.38
2022-12-10T03:36:04.382Z,99708.06
2022-12-10T03:38:31.750Z,99706.34
2022-12-10T03:40:59.879Z,99704.28
2022-12-10T03:43:26.863Z,99716.66
2022-12-10T03:45:54.318Z,99706.88
2022-12-10T03:48:27.291Z,99700.25
2022-12-10T03:50:54.411Z,99716.31
2022-12-10T03:53:21.567Z,99715.09
2022-12-10T03:55:48.552Z,99713.00
2022-12-10T03:58:20.168Z,99713.47
2022-12-10T04:00:47.767Z,99715.34
2022-12-10T04:03:14.727Z,99712.41
2022-12-10T04:05:41.663Z,99723.47
2022-12-10T04:08:08.689Z,99702.13
2022-12-10T04:10:39.499Z,99706.72
2022-12-10T04:13:24.982Z,99712.97
2022-12-10T04:16:10.748Z,99709.78
2022-12-10T04:18:37.694Z,99702.31
2022-12-10T04:21:24.764Z,99694.53
2022-12-10T04:24:10.890Z,99707.97
2022-12-10T04:26:53.196Z,99701.63
2022-12-10T04:29:25.755Z,99699.16
2022-12-10T04:31:53.093Z,99684.09
2022-12-10T04:34:20.708Z,99703.19
2022-12-10T04:36:49.034Z,99708.75
2022-12-10T04:39:16.287Z,99719.28
2022-12-10T04:41:47.161Z,99704.66
2022-12-10T04:44:14.670Z,99698.53
2022-12-10T04:46:42.053Z,99717.22
2022-12-10T04:49:09.316Z,99707.44
2022-12-10T04:51:36.421Z,99703.50
2022-12-10T04:54:03.995Z,99710.97
2022-12-10T04:56:31.347Z,99700.41
2022-12-10T04:58:59.306Z,99700.13
2022-12-10T05:01:27.203Z,99709.25
2022-12-10T05:03:54.456Z,99704.91
2022-12-10T05:06:22.119Z,99701.06
2022-12-10T05:08:49.190Z,99703.25
2022-12-10T05:11:21.735Z,99689.38
2022-12-10T05:13:48.804Z,99695.06
2022-12-10T05:16:17.991Z,99674.34
2022-12-10T05:18:45.589Z,99700.94
2022-12-10T05:21:17.504Z,99694.00
2022-12-10T05:23:51.024Z,99704.06
2022-12-10T05:26:23.361Z,99696.88
2022-12-10T05:28:55.347Z,99697.25
2022-12-10T05:31:24.751Z,99708.97
2022-12-10T05:33:53.240Z,99710.94
2022-12-10T05:36:23.864Z,99708.06
2022-12-10T05:38:52.049Z,99713.84
2022-12-10T05:41:30.716Z,99712.13
2022-12-10T05:43:59.234Z,99712.50
2022-12-10T05:46:30.322Z,99716.63
2022-12-10T05:48:57.938Z,99720.09
2022-12-10T05:51:28.053Z,99708.97
2022-12-10T05:53:55.964Z,99717.56
2022-12-10T05:56:24.564Z,99713.97
2022-12-10T05:58:56.304Z,99700.63
2022-12-10T06:01:26.237Z,99703.84
2022-12-10T06:03:53.717Z,99695.97
2022-12-10T06:06:26.602Z,99697.47
2022-12-10T06:08:53.895Z,99701.16
2022-12-10T06:11:20.955Z,99702.31
2022-12-10T06:13:53.096Z,99707.00
2022-12-10T06:16:23.988Z,99705.03
2022-12-10T06:18:51.669Z,99704.34
2022-12-10T06:21:19.773Z,99694.56
2022-12-10T06:23:47.658Z,99697.75
2022-12-10T06:26:18.437Z,99690.72
2022-12-10T06:28:46.808Z,99692.22
2022-12-10T06:31:14.382Z,99683.91
2022-12-10T06:33:42.266Z,99678.31
2022-12-10T06:36:11.437Z,99678.53
2022-12-10T06:38:39.149Z,99675.25
2022-12-10T06:41:08.341Z,99650.38
2022-12-10T06:43:35.543Z,99665.22
2022-12-10T06:46:14.432Z,99670.41
2022-12-10T06:48:42.039Z,99646.50
2022-12-10T06:51:10.106Z,99667.28
2022-12-10T06:53:38.644Z,99661.78
2022-12-10T06:56:07.794Z,99683.44
2022-12-10T06:58:35.953Z,99680.69
2022-12-10T07:01:08.298Z,99680.31
2022-12-10T07:03:35.987Z,99683.97
2022-12-10T07:06:04.333Z,99694.47
2022-12-10T07:08:31.474Z,99671.22
2022-12-10T07:10:58.947Z,99683.97
2022-12-10T07:13:30.337Z,99688.44
2022-12-10T07:15:58.678Z,99682.75
2022-12-10T07:18:26.244Z,99677.09
2022-12-10T07:20:53.235Z,99680.91
2022-12-10T07:23:21.077Z,99669.97
2022-12-10T07:25:48.260Z,99678.84
2022-12-10T07:28:15.401Z,99681.34
2022-12-10T07:30:42.384Z,99690.06
2022-12-10T07:33:09.419Z,99658.53
2022-12-10T07:35:43.382Z,99675.16
2022-12-10T07:38:14.418Z,99681.00
2022-12-10T07:40:41.391Z,99687.63
2022-12-10T07:43:08.391Z,99692.22
2022-12-10T07:45:35.397Z,99672.66
2022-12-10T07:48:02.540Z,99683.91
2022-12-10T07:50:29.882Z,99679.31
2022-12-10T07:52:57.296Z,99673.59
2022-12-10T07:55:24.268Z,99671.25
2022-12-10T07:57:51.261Z,99668.47
2022-12-10T08:00:18.548Z,99670.97
2022-12-10T08:02:45.545Z,99667.31
2022-12-10T08:05:12.639Z,99661.25
2022-12-10T08:07:39.901Z,99660.28
2022-12-10T08:10:07.532Z,99656.75
2022-12-10T08:12:34.862Z,99667.94
2022-12-10T08:15:03.618Z,99667.28
2022-12-10T08:17:30.863Z,99661.69
2022-12-10T08:19:58.100Z,99657.75
2022-12-10T08:22:25.083Z,99660.00
2022-12-10T08:24:52.017Z,99665.97
2022-12-10T08:27:19.016Z,99667.41
2022-12-10T08:29:46.026Z,99672.78
2022-12-10T08:32:13.045Z,99674.31
2022-12-10T08:34:40.166Z,99675.84
2022-12-10T08:37:12.060Z,99672.34
2022-12-10T08:39:39.590Z,99664.69
2022-12-10T08:42:06.616Z,99658.97
2022-12-10T08:44:33.603Z,99665.59
2022-12-10T08:47:00.657Z,99662.19
2022-12-10T08:49:27.625Z,99671.09
2022-12-10T08:51:54.571Z,99666.13
2022-12-10T08:54:21.632Z,99656.56
2022-12-10T08:56:48.658Z,99656.97
2022-12-10T08:59:15.717Z,99657.72
2022-12-10T09:01:42.720Z,99657.81
2022-12-10T09:04:10.539Z,99655.84
2022-12-10T09:06:37.523Z,99656.38
2022-12-10T09:09:04.595Z,99649.09
2022-12-10T09:11:34.702Z,99653.66
2022-12-10T09:14:02.329Z,99659.59
2022-12-10T09:16:35.350Z,99652.19
2022-12-10T09:19:03.945Z,99643.69
2022-12-10T09:21:33.929Z,99670.28
2022-12-10T09:24:01.172Z,99657.41
2022-12-10T09:26:28.572Z,99655.13
2022-12-10T09:28:55.909Z,99644.91
2022-12-10T09:31:22.973Z,99660.41
2022-12-10T09:33:52.076Z,99658.00
2022-12-10T09:36:19.319Z,99657.19
2022-12-10T09:38:47.361Z,99651.50
2022-12-10T09:41:32.289Z,99650.13
2022-12-10T09:44:30.641Z,99649.00
2022-12-10T09:47:02.672Z,99643.13
2022-12-10T09:50:17.628Z,99658.38
2022-12-10T09:52:48.694Z,99649.75
2022-12-10T09:55:17.550Z,99650.75
2022-12-10T09:57:51.236Z,99634.94
2022-12-10T10:00:56.909Z,99651.84
2022-12-10T10:03:24.304Z,99652.25
2022-12-10T10:05:54.965Z,99651.78
2022-12-10T10:08:32.475Z,99644.81
2022-12-10T10:11:01.256Z,99639.81
2022-12-10T10:13:28.200Z,99632.78
2022-12-10T10:15:55.936Z,99627.75
2022-12-10T10:18:46.204Z,99634.09
2022-12-10T10:21:24.105Z,99635.06
2022-12-10T10:23:52.367Z,99634.03
2022-12-10T10:26:19.650Z,99629.28
2022-12-10T10:28:47.335Z,99626.66
2022-12-10T10:31:25.013Z,99624.81
2022-12-10T10:33:58.215Z,99627.00
2022-12-10T10:36:31.511Z,99623.47
2022-12-10T10:39:09.197Z,99620.59
2022-12-10T10:41:40.919Z,99619.19
2022-12-10T10:44:19.815Z,99596.50
2022-12-10T10:46:51.138Z,99607.94
2022-12-10T10:49:29.848Z,99608.81
2022-12-10T10:52:21.471Z,99587.63
2022-12-10T10:54:49.643Z,99605.28
2022-12-10T10:57:25.561Z,99595.09
2022-12-10T11:00:08.913Z,99592.19
2022-12-10T11:02:38.873Z,99574.81
2022-12-10T11:05:09.731Z,99565.97
2022-12-10T11:07:41.512Z,99585.63
2022-12-10T11:10:22.432Z,99581.31
2022-12-10T11:13:05.591Z,99583.34
2022-12-10T11:15:32.769Z,99577.94
2022-12-10T11:18:00.518Z,99567.44
2022-12-10T11:20:41.626Z,99580.72
2022-12-10T11:23:11.707Z,99565.69
2022-12-10T11:25:50.318Z,99570.97
2022-12-10T11:28:34.580Z,99569.78
2022-12-10T11:31:05.271Z,99564.34
2022-12-10T11:33:42.543Z,99550.38
2022-12-10T11:36:38.880Z,99556.69
2022-12-10T11:39:36.359Z,99549.41
2022-12-10T11:42:16.904Z,99529.69
2022-12-10T11:45:02.299Z,99540.16
2022-12-10T11:47:30.750Z,99549.16
2022-12-10T11:50:22.255Z,99546.09
2022-12-10T11:53:24.501Z,99539.84
2022-12-10T11:55:57.079Z,99540.91
2022-12-10T11:58:50.326Z,99541.06
2022-12-10T12:01:17.273Z,99538.38
2022-12-10T12:03:44.419Z,99535.66
2022-12-10T12:06:29.853Z,99530.69
2022-12-10T12:09:19.443Z,99530.28
2022-12-10T12:12:12.339Z,99504.88
2022-12-10T12:14:49.813Z,99526.16
2022-12-10T12:17:20.042Z,99526.59
2022-12-10T12:20:01.707Z,99521.41
2022-12-10T12:22:38.262Z,99514.34
2022-12-10T12:25:21.633Z,99529.72
2022-12-10T12:27:56.890Z,99525.88
2022-12-10T12:30:24.329Z,99512.03
2022-12-10T12:33:10.395Z,99510.19
2022-12-10T12:35:46.061Z,99524.91
2022-12-10T12:38:32.934Z,99520.03
2022-12-10T12:41:27.915Z,99526.59
2022-12-10T12:44:30.889Z,99522.41
2022-12-10T12:47:05.704Z,99517.03
2022-12-10T12:49:39.174Z,99498.38
2022-12-10T12:52:24.413Z,99511.44
2022-12-10T12:54:51.794Z,99513.94
2022-12-10T12:57:25.475Z,99514.38
2022-12-10T13:00:19.249Z,99496.09
2022-12-10T13:03:21.768Z,99509.97
2022-12-10T13:05:48.897Z,99502.31
2022-12-10T13:08:18.994Z,99502.72
2022-12-10T13:11:11.904Z,99505.13
2022-12-10T13:13:40.059Z,99506.03
2022-12-10T13:16:47.380Z,99502.94
2022-12-10T13:19:20.370Z,99506.69
2022-12-10T13:21:53.333Z,99506.78
2022-12-10T13:24:41.350Z,99496.81
2022-12-10T13:27:32.524Z,99500.25
2022-12-10T13:30:13.204Z,99495.16
2022-12-10T13:32:40.201Z,99493.81
2022-12-10T13:35:09.957Z,99502.53
2022-12-10T13:37:57.038Z,99495.16
2022-12-10T13:40:51.434Z,99488.22
2022-12-10T13:43:57.499Z,99500.13
2022-12-10T13:46:32.613Z,99487.34
2022-12-10T13:49:03.347Z,99492.44
2022-12-10T13:52:08.360Z,99484.16
2022-12-10T13:55:21.293Z,99485.09
2022-12-10T13:58:36.516Z,99485.19
2022-12-10T14:01:14.724Z,99483.84
2022-12-10T14:03:56.873Z,99460.22
2022-12-10T14:06:25.556Z,99469.72
2022-12-10T14:08:55.174Z,99474.19
2022-12-10T14:11:26.653Z,99465.75
2022-12-10T14:13:59.028Z,99463.16
2022-12-10T14:16:30.095Z,99482.09
2022-12-10T14:19:01.999Z,99471.53
2022-12-10T14:21:37.696Z,99461.69
2022-12-10T14:24:04.991Z,99464.16
2022-12-10T14:26:37.919Z,99455.69
2022-12-10T14:29:07.786Z,99438.44
2022-12-10T14:31:40.135Z,99451.31
2022-12-10T14:34:09.659Z,99441.81
2022-12-10T14:36:45.685Z,99424.31
2022-12-10T14:39:27.248Z,99450.56
2022-12-10T14:41:58.371Z,99437.69
2022-12-10T14:44:26.596Z,99436.03
2022-12-10T14:47:05.001Z,99426.28
2022-12-10T14:49:32.126Z,99413.41
2022-12-10T14:52:01.384Z,99412.38
2022-12-10T14:54:35.447Z,99413.84
2022-12-10T14:57:08.336Z,99411.34
2022-12-10T15:00:01.534Z,99401.22
2022-12-10T15:02:32.641Z,99403.66
2022-12-10T15:05:00.409Z,99388.81
2022-12-10T15:07:35.989Z,99398.53
2022-12-10T15:10:11.794Z,99384.41
2022-12-10T15:12:51.223Z,99373.53
2022-12-10T15:15:29.634Z,99377.31
2022-12-10T15:18:05.363Z,99372.13
2022-12-10T15:20:37.360Z,99371.88
2022-12-10T15:23:19.725Z,99361.94
2022-12-10T15:25:59.137Z,99359.72
2022-12-10T15:28:29.921Z,99349.56
2022-12-10T15:30:59.684Z,99349.16
2022-12-10T15:33:34.520Z,99335.47
2022-12-10T15:36:02.413Z,99332.97
2022-12-10T15:38:30.292Z,99326.09
2022-12-10T15:41:21.111Z,99323.41
2022-12-10T15:43:58.158Z,99317.97
2022-12-10T15:46:25.177Z,99304.53
2022-12-10T15:48:52.290Z,99303.13
2022-12-10T15:51:19.844Z,99304.53
2022-12-10T15:53:47.249Z,99297.56
2022-12-10T15:56:14.244Z,99283.97
2022-12-10T15:58:42.659Z,99290.78
2022-12-10T16:01:15.117Z,99277.19
2022-12-10T16:03:42.803Z,99284.59
2022-12-10T16:06:09.884Z,99287.13
2022-12-10T16:08:37.563Z,99278.50
2022-12-10T16:11:18.365Z,99259.13
2022-12-10T16:13:51.629Z,99265.38
2022-12-10T16:16:18.963Z,99256.09
2022-12-10T16:18:46.102Z,99255.31
2022-12-10T16:21:13.267Z,99239.59
2022-12-10T16:23:40.577Z,99239.38
2022-12-10T16:26:15.469Z,99247.06
2022-12-10T16:28:43.615Z,99230.97
2022-12-10T16:31:14.917Z,99240.38
2022-12-10T16:33:43.622Z,99240.78
2022-12-10T16:36:12.510Z,99230.81
2022-12-10T16:38:40.767Z,99238.56
2022-12-10T16:41:23.573Z,99244.09
2022-12-10T16:43:50.942Z,99223.56
2022-12-10T16:46:18.033Z,99244.88
2022-12-10T16:48:45.333Z,99256.38
2022-12-10T16:51:31.118Z,99251.00
2022-12-10T16:53:58.891Z,99254.84
2022-12-10T16:56:25.976Z,99245.00
2022-12-10T16:58:53.102Z,99245.09
2022-12-10T17:01:23.268Z,99239.91
2022-12-10T17:03:51.855Z,99234.72
2022-12-10T17:06:20.082Z,99232.25
2022-12-10T17:08:47.670Z,99225.69
2022-12-10T17:11:43.261Z,99221.13
2022-12-10T17:14:23.135Z,99215.63
2022-12-10T17:16:51.993Z,99217.97
2022-12-10T17:19:19.316Z,99213.91
2022-12-10T17:21:46.902Z,99221.03
2022-12-10T17:24:13.952Z,99222.78
2022-12-10T17:26:45.169Z,99208.97
2022-12-10T17:29:14.521Z,99214.63
2022-12-10T17:31:41.779Z,99202.16
2022-12-10T17:34:27.375Z,99192.53
2022-12-10T17:36:54.989Z,99187.09
2022-12-10T17:39:25.892Z,99194.41
2022-12-10T17:41:54.357Z,99196.06
2022-12-10T17:44:23.099Z,99194.41
2022-12-10T17:46:50.260Z,99182.38
2022-12-10T17:49:17.460Z,99185.47
2022-12-10T17:51:44.900Z,99180.97
2022-12-10T17:54:12.345Z,99174.72
2022-12-10T17:56:40.649Z,99167.75
2022-12-10T17:59:07.769Z,99178.16
2022-12-10T18:01:34.947Z,99159.16
2022-12-10T18:04:02.125Z,99165.81
2022-12-10T18:06:30.582Z,99160.16
2022-12-10T18:09:00.897Z,99166.53
2022-12-10T18:11:33.226Z,99155.22
2022-12-10T18:14:00.248Z,99149.97
2022-12-10T18:16:32.308Z,99151.63
2022-12-10T18:19:02.285Z,99150.31
2022-12-10T18:21:30.250Z,99141.38
2022-12-10T18:23:57.245Z,99135.22
2022-12-10T18:26:27.387Z,99133.38
2022-12-10T18:29:00.382Z,99135.59
2022-12-10T18:31:33.183Z,99135.00
2022-12-10T18:34:03.635Z,99118.94
2022-12-10T18:36:33.965Z,99122.97
2022-12-10T18:39:04.763Z,99114.69
2022-12-10T18:41:33.413Z,99124.72
2022-12-10T18:44:00.424Z,99116.34
2022-12-10T18:46:29.477Z,99114.06
2022-12-10T18:48:57.008Z,99092.94
2022-12-10T18:51:24.870Z,99120.81
2022-12-10T18:53:52.253Z,99116.66
2022-12-10T18:56:23.564Z,99100.53
2022-12-10T18:58:51.787Z,99104.53
2022-12-10T19:01:25.261Z,99098.16
2022-12-10T19:03:56.650Z,99081.41
2022-12-10T19:06:26.708Z,99097.31
2022-12-10T19:09:18.229Z,99095.06
2022-12-10T19:11:54.221Z,99097.00
2022-12-10T19:14:23.902Z,99097.69
2022-12-10T19:16:54.322Z,99097.94
2022-12-10T19:19:24.269Z,99097.94
2022-12-10T19:21:54.202Z,99111.16
2022-12-10T19:24:22.210Z,99101.25
2022-12-10T19:26:49.324Z,99091.81
2022-12-10T19:29:21.707Z,99098.31
2022-12-10T19:31:50.945Z,99083.91
2022-12-10T19:34:20.016Z,99087.09
2022-12-10T19:36:49.887Z,99092.75
2022-12-10T19:39:23.343Z,99079.19
2022-12-10T19:41:51.976Z,99064.19
2022-12-10T19:44:19.297Z,99050.38
2022-12-10T19:46:46.532Z,99045.31
2022-12-10T19:49:15.584Z,99047.91
2022-12-10T19:51:43.207Z,99050.97
2022-12-10T19:54:11.119Z,99031.50
2022-12-10T19:56:38.200Z,99048.34
2022-12-10T19:59:15.123Z,99040.00
2022-12-10T20:01:43.541Z,99040.81
2022-12-10T20:04:10.766Z,99029.03
2022-12-10T20:06:41.345Z,99024.31
2022-12-10T20:09:24.494Z,99045.53
2022-12-10T20:11:54.299Z,99017.72
2022-12-10T20:14:23.200Z,99039.88
2022-12-10T20:16:52.123Z,99036.13
2022-12-10T20:19:21.617Z,99018.16
2022-12-10T20:21:48.623Z,99033.84
2022-12-10T20:24:15.857Z,99025.34
2022-12-10T20:26:46.416Z,99025.47
2022-12-10T20:29:25.680Z,99040.00
2022-12-10T20:31:55.351Z,99034.69
2022-12-10T20:34:23.444Z,99030.22
2022-12-10T20:36:51.371Z,99029.50
2022-12-10T20:39:30.648Z,99032.75
2022-12-10T20:41:59.356Z,99034.56
2022-12-10T20:44:27.891Z,99022.56
2022-12-10T20:46:55.863Z,99023.88
2022-12-10T20:49:24.666Z,99024.53
2022-12-10T20:51:51.748Z,99031.56
2022-12-10T20:54:18.980Z,99015.97
2022-12-10T20:56:45.983Z,99020.03
2022-12-10T20:59:15.214Z,99003.25
2022-12-10T21:01:42.664Z,99011.25
2022-12-10T21:04:09.975Z,99008.06
2022-12-10T21:06:36.983Z,99015.47
2022-12-10T21:09:04.428Z,99012.25
2022-12-10T21:11:31.427Z,99018.25
2022-12-10T21:13:58.439Z,99014.41
2022-12-10T21:16:26.253Z,99013.09
2022-12-10T21:18:54.343Z,99016.91
2022-12-10T21:21:23.255Z,99022.94
2022-12-10T21:23:50.403Z,99020.84
2022-12-10T21:26:17.419Z,99031.00
2022-12-10T21:28:45.154Z,99029.53
2022-12-10T21:31:24.460Z,99028.00
2022-12-10T21:33:52.512Z,99029.66
2022-12-10T21:36:21.423Z,99026.09
2022-12-10T21:38:48.852Z,99001.44
2022-12-10T21:41:40.906Z,99021.06
2022-12-10T21:44:08.196Z,99027.44
2022-12-10T21:46:36.066Z,99018.19
2022-12-10T21:49:03.979Z,99015.88
2022-12-10T21:51:36.390Z,99027.00
2022-12-10T21:54:07.249Z,99011.00
2022-12-10T21:56:34.292Z,99008.44
2022-12-10T21:59:01.589Z,98999.53
2022-12-10T22:01:29.018Z,98994.16
2022-12-10T22:03:56.041Z,99000.34
2022-12-10T22:06:26.933Z,98991.84
2022-12-10T22:08:53.915Z,98988.66
2022-12-10T22:11:21.030Z,98981.69
2022-12-10T22:13:48.053Z,98971.56
2022-12-10T22:16:15.148Z,98979.50
2022-12-10T22:18:42.255Z,98994.69
2022-12-10T22:21:09.361Z,98977.84
2022-12-10T22:23:36.332Z,98957.03
2022-12-10T22:26:09.106Z,98989.63
2022-12-10T22:28:36.588Z,98986.16
2022-12-10T22:31:08.798Z,98988.16
2022-12-10T22:33:38.760Z,98987.03
2022-12-10T22:36:07.120Z,98968.38
2022-12-10T22:38:35.489Z,98981.81
2022-12-10T22:41:03.824Z,98976.63
2022-12-10T22:46:21.546Z,98977.97
2022-12-10T22:48:48.784Z,98987.34
2022-12-10T22:51:16.266Z,99000.47
2022-12-10T22:53:43.283Z,98993.81
2022-12-10T22:56:12.767Z,98998.00
2022-12-10T22:58:39.823Z,98998.69
2022-12-10T23:01:06.892Z,98988.81
2022-12-10T23:03:33.932Z,98994.97
2022-12-10T23:06:01.632Z,99005.38
2022-12-10T23:08:31.353Z,98994.03
2022-12-10T23:10:58.664Z,98998.06
2022-12-10T23:13:25.701Z,99002.56
2022-12-10T23:15:54.299Z,98997.75
2022-12-10T23:18:22.276Z,98993.63
2022-12-10T23:20:50.701Z,98998.66
2022-12-10T23:23:19.512Z,98972.47
2022-12-10T23:25:47.235Z,99001.88
2022-12-10T23:28:15.207Z,99001.84
2022-12-10T23:30:42.876Z,98999.88
2022-12-10T23:33:10.215Z,99005.44
2022-12-10T23:35:42.324Z,98999.41
2022-12-10T23:38:09.758Z,99000.25
2022-12-10T23:40:40.474Z,98996.16
2022-12-10T23:43:07.542Z,98997.19
2022-12-10T23:45:34.799Z,99001.25
2022-12-10T23:48:02.180Z,99017.09
2022-12-10T23:50:32.998Z,99020.84
2022-12-10T23:53:01.256Z,99022.00
2022-12-10T23:55:28.961Z,99022.00
2022-12-10T23:57:56.385Z,99020.63
